sensor_id;sensor_type;location;lat;lon;timestamp;P1;durP1;ratioP1;P2;durP2;ratioP2
69837;SDS011;57135;51.992;4.476;2022-07-29T00:02:09;1.99;;;1.99;;
69837;SDS011;57135;51.992;4.476;2022-07-29T00:04:35;1.91;;;1.91;;
69837;SDS011;57135;51.992;4.476;2022-07-29T00:07:01;1.99;;;1.99;;
69837;SDS011;57135;51.992;4.476;2022-07-29T00:09:26;1.88;;;1.88;;
69837;SDS011;57135;51.992;4.476;2022-07-29T00:11:53;1.90;;;1.90;;
69837;SDS011;57135;51.992;4.476;2022-07-29T00:14:20;1.92;;;1.92;;
69837;SDS011;57135;51.992;4.476;2022-07-29T00:16:46;1.93;;;1.93;;
69837;SDS011;57135;51.992;4.476;2022-07-29T00:19:11;2.05;;;2.05;;
69837;SDS011;57135;51.992;4.476;2022-07-29T00:21:36;2.16;;;2.13;;
69837;SDS011;57135;51.992;4.476;2022-07-29T00:24:02;1.89;;;1.88;;
69837;SDS011;57135;51.992;4.476;2022-07-29T00:26:28;1.84;;;1.84;;
69837;SDS011;57135;51.992;4.476;2022-07-29T00:28:57;1.89;;;1.89;;
69837;SDS011;57135;51.992;4.476;2022-07-29T00:31:26;1.69;;;1.69;;
69837;SDS011;57135;51.992;4.476;2022-07-29T00:33:52;1.89;;;1.89;;
69837;SDS011;57135;51.992;4.476;2022-07-29T00:36:17;2.07;;;2.07;;
69837;SDS011;57135;51.992;4.476;2022-07-29T00:38:43;2.00;;;2.00;;
69837;SDS011;57135;51.992;4.476;2022-07-29T00:41:11;2.01;;;2.00;;
69837;SDS011;57135;51.992;4.476;2022-07-29T00:43:36;2.14;;;2.13;;
69837;SDS011;57135;51.992;4.476;2022-07-29T00:46:02;1.92;;;1.92;;
69837;SDS011;57135;51.992;4.476;2022-07-29T00:48:28;2.15;;;2.13;;
69837;SDS011;57135;51.992;4.476;2022-07-29T00:50:53;2.07;;;2.05;;
69837;SDS011;57135;51.992;4.476;2022-07-29T00:53:20;1.91;;;1.90;;
69837;SDS011;57135;51.992;4.476;2022-07-29T00:55:46;2.24;;;2.23;;
69837;SDS011;57135;51.992;4.476;2022-07-29T00:58:12;2.12;;;2.12;;
69837;SDS011;57135;51.992;4.476;2022-07-29T01:00:38;2.14;;;2.14;;
69837;SDS011;57135;51.992;4.476;2022-07-29T01:03:06;2.23;;;2.23;;
69837;SDS011;57135;51.992;4.476;2022-07-29T01:05:32;2.09;;;2.08;;
69837;SDS011;57135;51.992;4.476;2022-07-29T01:07:59;2.19;;;2.18;;
69837;SDS011;57135;51.992;4.476;2022-07-29T01:10:25;2.17;;;2.17;;
69837;SDS011;57135;51.992;4.476;2022-07-29T01:12:52;2.23;;;2.23;;
69837;SDS011;57135;51.992;4.476;2022-07-29T01:15:21;2.11;;;2.11;;
69837;SDS011;57135;51.992;4.476;2022-07-29T01:21:05;2.31;;;2.31;;
69837;SDS011;57135;51.992;4.476;2022-07-29T01:26:36;2.29;;;2.29;;
69837;SDS011;57135;51.992;4.476;2022-07-29T01:29:28;2.28;;;2.28;;
69837;SDS011;57135;51.992;4.476;2022-07-29T01:34:50;2.08;;;2.08;;
69837;SDS011;57135;51.992;4.476;2022-07-29T01:37:38;2.12;;;2.12;;
69837;SDS011;57135;51.992;4.476;2022-07-29T01:40:40;2.22;;;2.22;;
69837;SDS011;57135;51.992;4.476;2022-07-29T01:43:11;2.33;;;2.33;;
69837;SDS011;57135;51.992;4.476;2022-07-29T01:45:40;2.23;;;2.23;;
69837;SDS011;57135;51.992;4.476;2022-07-29T01:48:13;2.17;;;2.17;;
69837;SDS011;57135;51.992;4.476;2022-07-29T01:50:46;2.05;;;2.05;;
69837;SDS011;57135;51.992;4.476;2022-07-29T01:53:14;2.15;;;2.15;;
69837;SDS011;57135;51.992;4.476;2022-07-29T01:55:46;2.48;;;2.48;;
69837;SDS011;57135;51.992;4.476;2022-07-29T01:58:14;2.32;;;2.32;;
69837;SDS011;57135;51.992;4.476;2022-07-29T02:00:43;2.27;;;2.27;;
69837;SDS011;57135;51.992;4.476;2022-07-29T02:03:11;2.07;;;2.07;;
69837;SDS011;57135;51.992;4.476;2022-07-29T02:05:39;2.19;;;2.19;;
69837;SDS011;57135;51.992;4.476;2022-07-29T02:08:07;2.28;;;2.28;;
69837;SDS011;57135;51.992;4.476;2022-07-29T02:10:35;2.30;;;2.30;;
69837;SDS011;57135;51.992;4.476;2022-07-29T02:13:03;2.28;;;2.28;;
69837;SDS011;57135;51.992;4.476;2022-07-29T02:15:32;2.32;;;2.32;;
69837;SDS011;57135;51.992;4.476;2022-07-29T02:18:13;2.49;;;2.49;;
69837;SDS011;57135;51.992;4.476;2022-07-29T02:20:46;2.28;;;2.28;;
69837;SDS011;57135;51.992;4.476;2022-07-29T02:23:14;2.37;;;2.37;;
69837;SDS011;57135;51.992;4.476;2022-07-29T02:25:44;2.35;;;2.35;;
69837;SDS011;57135;51.992;4.476;2022-07-29T02:28:13;2.48;;;2.48;;
69837;SDS011;57135;51.992;4.476;2022-07-29T02:30:41;2.57;;;2.57;;
69837;SDS011;57135;51.992;4.476;2022-07-29T02:33:09;2.52;;;2.52;;
69837;SDS011;57135;51.992;4.476;2022-07-29T02:35:39;2.19;;;2.19;;
69837;SDS011;57135;51.992;4.476;2022-07-29T02:38:07;2.33;;;2.33;;
69837;SDS011;57135;51.992;4.476;2022-07-29T02:40:54;2.55;;;2.55;;
69837;SDS011;57135;51.992;4.476;2022-07-29T02:43:22;2.53;;;2.53;;
69837;SDS011;57135;51.992;4.476;2022-07-29T02:45:49;2.37;;;2.37;;
69837;SDS011;57135;51.992;4.476;2022-07-29T02:48:18;2.43;;;2.43;;
69837;SDS011;57135;51.992;4.476;2022-07-29T02:50:52;2.46;;;2.46;;
69837;SDS011;57135;51.992;4.476;2022-07-29T02:53:32;2.63;;;2.63;;
69837;SDS011;57135;51.992;4.476;2022-07-29T02:55:59;2.58;;;2.58;;
69837;SDS011;57135;51.992;4.476;2022-07-29T02:58:27;2.50;;;2.50;;
69837;SDS011;57135;51.992;4.476;2022-07-29T03:00:58;2.51;;;2.51;;
69837;SDS011;57135;51.992;4.476;2022-07-29T03:03:28;2.64;;;2.64;;
69837;SDS011;57135;51.992;4.476;2022-07-29T03:05:57;2.33;;;2.33;;
69837;SDS011;57135;51.992;4.476;2022-07-29T03:08:25;2.34;;;2.34;;
69837;SDS011;57135;51.992;4.476;2022-07-29T03:10:52;2.44;;;2.44;;
69837;SDS011;57135;51.992;4.476;2022-07-29T03:13:18;2.57;;;2.57;;
69837;SDS011;57135;51.992;4.476;2022-07-29T03:15:44;2.72;;;2.72;;
69837;SDS011;57135;51.992;4.476;2022-07-29T03:18:11;2.58;;;2.58;;
69837;SDS011;57135;51.992;4.476;2022-07-29T03:20:38;2.57;;;2.57;;
69837;SDS011;57135;51.992;4.476;2022-07-29T03:23:04;2.50;;;2.50;;
69837;SDS011;57135;51.992;4.476;2022-07-29T03:25:30;2.39;;;2.39;;
69837;SDS011;57135;51.992;4.476;2022-07-29T03:27:55;2.50;;;2.50;;
69837;SDS011;57135;51.992;4.476;2022-07-29T03:30:21;2.33;;;2.33;;
69837;SDS011;57135;51.992;4.476;2022-07-29T03:32:48;2.63;;;2.63;;
69837;SDS011;57135;51.992;4.476;2022-07-29T03:35:15;2.67;;;2.67;;
69837;SDS011;57135;51.992;4.476;2022-07-29T03:37:44;2.72;;;2.72;;
69837;SDS011;57135;51.992;4.476;2022-07-29T03:40:10;2.43;;;2.43;;
69837;SDS011;57135;51.992;4.476;2022-07-29T03:42:39;2.70;;;2.70;;
69837;SDS011;57135;51.992;4.476;2022-07-29T03:45:07;2.79;;;2.79;;
69837;SDS011;57135;51.992;4.476;2022-07-29T03:47:35;2.73;;;2.73;;
69837;SDS011;57135;51.992;4.476;2022-07-29T03:50:06;2.96;;;2.96;;
69837;SDS011;57135;51.992;4.476;2022-07-29T03:52:34;3.00;;;3.00;;
69837;SDS011;57135;51.992;4.476;2022-07-29T03:55:00;3.04;;;3.04;;
69837;SDS011;57135;51.992;4.476;2022-07-29T03:57:27;3.17;;;3.17;;
69837;SDS011;57135;51.992;4.476;2022-07-29T03:59:54;2.89;;;2.89;;
69837;SDS011;57135;51.992;4.476;2022-07-29T04:02:20;3.14;;;3.14;;
69837;SDS011;57135;51.992;4.476;2022-07-29T04:04:46;3.13;;;3.13;;
69837;SDS011;57135;51.992;4.476;2022-07-29T04:07:12;3.16;;;3.16;;
69837;SDS011;57135;51.992;4.476;2022-07-29T04:09:39;3.20;;;3.20;;
69837;SDS011;57135;51.992;4.476;2022-07-29T04:12:04;3.31;;;3.31;;
69837;SDS011;57135;51.992;4.476;2022-07-29T04:14:34;3.32;;;3.32;;
69837;SDS011;57135;51.992;4.476;2022-07-29T04:17:03;3.61;;;3.61;;
69837;SDS011;57135;51.992;4.476;2022-07-29T04:19:29;3.50;;;3.50;;
69837;SDS011;57135;51.992;4.476;2022-07-29T04:21:55;3.41;;;3.41;;
69837;SDS011;57135;51.992;4.476;2022-07-29T04:24:21;3.55;;;3.55;;
69837;SDS011;57135;51.992;4.476;2022-07-29T04:26:46;3.70;;;3.70;;
69837;SDS011;57135;51.992;4.476;2022-07-29T04:29:12;3.64;;;3.64;;
69837;SDS011;57135;51.992;4.476;2022-07-29T04:31:39;3.64;;;3.64;;
69837;SDS011;57135;51.992;4.476;2022-07-29T04:34:05;3.62;;;3.62;;
69837;SDS011;57135;51.992;4.476;2022-07-29T04:36:30;3.73;;;3.73;;
69837;SDS011;57135;51.992;4.476;2022-07-29T04:38:56;3.59;;;3.59;;
69837;SDS011;57135;51.992;4.476;2022-07-29T04:41:21;3.58;;;3.58;;
69837;SDS011;57135;51.992;4.476;2022-07-29T04:43:47;3.44;;;3.44;;
69837;SDS011;57135;51.992;4.476;2022-07-29T04:46:12;3.66;;;3.66;;
69837;SDS011;57135;51.992;4.476;2022-07-29T04:48:38;3.51;;;3.51;;
69837;SDS011;57135;51.992;4.476;2022-07-29T04:51:03;3.58;;;3.58;;
69837;SDS011;57135;51.992;4.476;2022-07-29T04:53:29;3.72;;;3.72;;
69837;SDS011;57135;51.992;4.476;2022-07-29T04:55:54;3.62;;;3.62;;
69837;SDS011;57135;51.992;4.476;2022-07-29T04:58:20;3.66;;;3.66;;
69837;SDS011;57135;51.992;4.476;2022-07-29T05:00:45;3.56;;;3.56;;
69837;SDS011;57135;51.992;4.476;2022-07-29T05:03:10;3.82;;;3.82;;
69837;SDS011;57135;51.992;4.476;2022-07-29T05:05:36;3.54;;;3.54;;
69837;SDS011;57135;51.992;4.476;2022-07-29T05:08:01;3.83;;;3.83;;
69837;SDS011;57135;51.992;4.476;2022-07-29T05:10:27;3.65;;;3.65;;
69837;SDS011;57135;51.992;4.476;2022-07-29T05:12:53;3.74;;;3.74;;
69837;SDS011;57135;51.992;4.476;2022-07-29T05:15:19;4.02;;;4.02;;
69837;SDS011;57135;51.992;4.476;2022-07-29T05:17:44;3.88;;;3.88;;
69837;SDS011;57135;51.992;4.476;2022-07-29T05:20:10;3.64;;;3.64;;
69837;SDS011;57135;51.992;4.476;2022-07-29T05:22:35;3.73;;;3.73;;
69837;SDS011;57135;51.992;4.476;2022-07-29T05:25:02;3.57;;;3.57;;
69837;SDS011;57135;51.992;4.476;2022-07-29T05:27:28;3.66;;;3.66;;
69837;SDS011;57135;51.992;4.476;2022-07-29T05:29:53;3.53;;;3.53;;
69837;SDS011;57135;51.992;4.476;2022-07-29T05:32:19;3.58;;;3.58;;
69837;SDS011;57135;51.992;4.476;2022-07-29T05:34:44;3.67;;;3.67;;
69837;SDS011;57135;51.992;4.476;2022-07-29T05:37:10;3.69;;;3.69;;
69837;SDS011;57135;51.992;4.476;2022-07-29T05:39:38;3.69;;;3.69;;
69837;SDS011;57135;51.992;4.476;2022-07-29T05:42:07;3.58;;;3.58;;
69837;SDS011;57135;51.992;4.476;2022-07-29T05:44:35;3.89;;;3.89;;
69837;SDS011;57135;51.992;4.476;2022-07-29T05:47:02;3.61;;;3.61;;
69837;SDS011;57135;51.992;4.476;2022-07-29T05:49:27;3.38;;;3.38;;
69837;SDS011;57135;51.992;4.476;2022-07-29T05:51:52;3.15;;;3.15;;
69837;SDS011;57135;51.992;4.476;2022-07-29T05:54:18;3.35;;;3.35;;
69837;SDS011;57135;51.992;4.476;2022-07-29T05:56:43;3.15;;;3.15;;
69837;SDS011;57135;51.992;4.476;2022-07-29T05:59:09;3.38;;;3.38;;
69837;SDS011;57135;51.992;4.476;2022-07-29T06:01:34;3.23;;;3.23;;
69837;SDS011;57135;51.992;4.476;2022-07-29T06:04:04;3.21;;;3.21;;
69837;SDS011;57135;51.992;4.476;2022-07-29T06:06:30;3.06;;;3.06;;
69837;SDS011;57135;51.992;4.476;2022-07-29T06:08:55;3.22;;;3.22;;
69837;SDS011;57135;51.992;4.476;2022-07-29T06:11:21;3.12;;;3.12;;
69837;SDS011;57135;51.992;4.476;2022-07-29T06:13:46;3.06;;;3.06;;
69837;SDS011;57135;51.992;4.476;2022-07-29T06:16:12;3.05;;;3.05;;
69837;SDS011;57135;51.992;4.476;2022-07-29T06:18:37;3.14;;;3.14;;
69837;SDS011;57135;51.992;4.476;2022-07-29T06:21:07;3.26;;;3.26;;
69837;SDS011;57135;51.992;4.476;2022-07-29T06:23:33;3.10;;;3.10;;
69837;SDS011;57135;51.992;4.476;2022-07-29T06:25:59;3.11;;;3.11;;
69837;SDS011;57135;51.992;4.476;2022-07-29T06:28:25;2.96;;;2.96;;
69837;SDS011;57135;51.992;4.476;2022-07-29T06:30:51;2.96;;;2.96;;
69837;SDS011;57135;51.992;4.476;2022-07-29T06:33:19;3.03;;;3.03;;
69837;SDS011;57135;51.992;4.476;2022-07-29T06:35:44;3.11;;;3.11;;
69837;SDS011;57135;51.992;4.476;2022-07-29T06:38:12;3.16;;;3.16;;
69837;SDS011;57135;51.992;4.476;2022-07-29T06:40:40;3.05;;;3.05;;
69837;SDS011;57135;51.992;4.476;2022-07-29T06:43:38;3.01;;;3.01;;
69837;SDS011;57135;51.992;4.476;2022-07-29T06:46:13;3.42;;;3.42;;
69837;SDS011;57135;51.992;4.476;2022-07-29T06:48:40;3.10;;;3.10;;
69837;SDS011;57135;51.992;4.476;2022-07-29T06:51:07;3.08;;;3.08;;
69837;SDS011;57135;51.992;4.476;2022-07-29T06:53:34;3.07;;;3.07;;
69837;SDS011;57135;51.992;4.476;2022-07-29T06:56:00;3.22;;;3.22;;
69837;SDS011;57135;51.992;4.476;2022-07-29T06:58:26;2.92;;;2.92;;
69837;SDS011;57135;51.992;4.476;2022-07-29T07:00:52;3.11;;;3.11;;
69837;SDS011;57135;51.992;4.476;2022-07-29T07:03:18;3.16;;;3.16;;
69837;SDS011;57135;51.992;4.476;2022-07-29T07:05:44;3.19;;;3.19;;
69837;SDS011;57135;51.992;4.476;2022-07-29T07:08:10;3.03;;;3.03;;
69837;SDS011;57135;51.992;4.476;2022-07-29T07:10:37;3.08;;;3.08;;
69837;SDS011;57135;51.992;4.476;2022-07-29T07:13:03;3.14;;;3.14;;
69837;SDS011;57135;51.992;4.476;2022-07-29T07:15:30;3.11;;;3.11;;
69837;SDS011;57135;51.992;4.476;2022-07-29T07:17:56;3.12;;;3.12;;
69837;SDS011;57135;51.992;4.476;2022-07-29T07:20:22;3.07;;;3.07;;
69837;SDS011;57135;51.992;4.476;2022-07-29T07:22:48;3.12;;;3.12;;
69837;SDS011;57135;51.992;4.476;2022-07-29T07:25:14;3.29;;;3.29;;
69837;SDS011;57135;51.992;4.476;2022-07-29T07:27:39;3.20;;;3.20;;
69837;SDS011;57135;51.992;4.476;2022-07-29T07:30:05;3.17;;;3.17;;
69837;SDS011;57135;51.992;4.476;2022-07-29T07:32:32;2.94;;;2.94;;
69837;SDS011;57135;51.992;4.476;2022-07-29T07:34:58;3.19;;;3.19;;
69837;SDS011;57135;51.992;4.476;2022-07-29T07:37:24;3.26;;;3.26;;
69837;SDS011;57135;51.992;4.476;2022-07-29T07:39:50;3.32;;;3.32;;
69837;SDS011;57135;51.992;4.476;2022-07-29T07:42:17;3.35;;;3.35;;
69837;SDS011;57135;51.992;4.476;2022-07-29T07:44:42;3.28;;;3.28;;
69837;SDS011;57135;51.992;4.476;2022-07-29T07:47:08;3.15;;;3.15;;
69837;SDS011;57135;51.992;4.476;2022-07-29T07:49:34;3.23;;;3.23;;
69837;SDS011;57135;51.992;4.476;2022-07-29T07:51:59;3.26;;;3.26;;
69837;SDS011;57135;51.992;4.476;2022-07-29T07:54:25;3.21;;;3.21;;
69837;SDS011;57135;51.992;4.476;2022-07-29T07:56:50;3.29;;;3.29;;
69837;SDS011;57135;51.992;4.476;2022-07-29T07:59:16;3.17;;;3.17;;
69837;SDS011;57135;51.992;4.476;2022-07-29T08:01:42;3.20;;;3.20;;
69837;SDS011;57135;51.992;4.476;2022-07-29T08:04:07;3.14;;;3.14;;
69837;SDS011;57135;51.992;4.476;2022-07-29T08:06:33;3.26;;;3.26;;
69837;SDS011;57135;51.992;4.476;2022-07-29T08:09:03;3.10;;;3.10;;
69837;SDS011;57135;51.992;4.476;2022-07-29T08:11:29;2.96;;;2.96;;
69837;SDS011;57135;51.992;4.476;2022-07-29T08:13:55;3.00;;;3.00;;
69837;SDS011;57135;51.992;4.476;2022-07-29T08:16:21;3.20;;;3.20;;
69837;SDS011;57135;51.992;4.476;2022-07-29T08:18:46;3.21;;;3.21;;
69837;SDS011;57135;51.992;4.476;2022-07-29T08:21:13;3.21;;;3.21;;
69837;SDS011;57135;51.992;4.476;2022-07-29T08:23:40;3.09;;;3.09;;
69837;SDS011;57135;51.992;4.476;2022-07-29T08:26:11;3.18;;;3.18;;
69837;SDS011;57135;51.992;4.476;2022-07-29T08:28:38;3.09;;;3.09;;
69837;SDS011;57135;51.992;4.476;2022-07-29T08:31:04;3.51;;;3.51;;
69837;SDS011;57135;51.992;4.476;2022-07-29T08:33:29;3.30;;;3.30;;
69837;SDS011;57135;51.992;4.476;2022-07-29T08:35:55;3.24;;;3.24;;
69837;SDS011;57135;51.992;4.476;2022-07-29T08:38:20;3.32;;;3.32;;
69837;SDS011;57135;51.992;4.476;2022-07-29T08:40:46;2.90;;;2.89;;
69837;SDS011;57135;51.992;4.476;2022-07-29T08:43:11;3.41;;;3.41;;
69837;SDS011;57135;51.992;4.476;2022-07-29T08:45:43;3.44;;;3.44;;
69837;SDS011;57135;51.992;4.476;2022-07-29T08:48:17;3.43;;;3.43;;
69837;SDS011;57135;51.992;4.476;2022-07-29T08:50:45;3.41;;;3.41;;
69837;SDS011;57135;51.992;4.476;2022-07-29T08:53:13;3.20;;;3.20;;
69837;SDS011;57135;51.992;4.476;2022-07-29T08:55:40;3.34;;;3.34;;
69837;SDS011;57135;51.992;4.476;2022-07-29T08:58:08;3.32;;;3.32;;
69837;SDS011;57135;51.992;4.476;2022-07-29T09:00:34;3.18;;;3.18;;
69837;SDS011;57135;51.992;4.476;2022-07-29T09:03:01;3.18;;;3.18;;
69837;SDS011;57135;51.992;4.476;2022-07-29T09:05:29;3.42;;;3.42;;
69837;SDS011;57135;51.992;4.476;2022-07-29T09:07:57;3.08;;;3.08;;
69837;SDS011;57135;51.992;4.476;2022-07-29T09:10:22;3.47;;;3.47;;
69837;SDS011;57135;51.992;4.476;2022-07-29T09:12:48;3.28;;;3.28;;
69837;SDS011;57135;51.992;4.476;2022-07-29T09:15:14;3.34;;;3.34;;
69837;SDS011;57135;51.992;4.476;2022-07-29T09:17:47;3.27;;;3.27;;
69837;SDS011;57135;51.992;4.476;2022-07-29T09:20:15;3.76;;;3.76;;
69837;SDS011;57135;51.992;4.476;2022-07-29T09:22:42;3.54;;;3.54;;
69837;SDS011;57135;51.992;4.476;2022-07-29T09:25:08;3.51;;;3.51;;
69837;SDS011;57135;51.992;4.476;2022-07-29T09:27:37;3.65;;;3.65;;
69837;SDS011;57135;51.992;4.476;2022-07-29T09:30:04;3.92;;;3.92;;
69837;SDS011;57135;51.992;4.476;2022-07-29T09:32:32;4.31;;;4.31;;
69837;SDS011;57135;51.992;4.476;2022-07-29T09:35:15;3.90;;;3.90;;
69837;SDS011;57135;51.992;4.476;2022-07-29T09:37:43;3.79;;;3.79;;
69837;SDS011;57135;51.992;4.476;2022-07-29T09:40:12;4.16;;;4.16;;
69837;SDS011;57135;51.992;4.476;2022-07-29T09:42:40;3.37;;;3.37;;
69837;SDS011;57135;51.992;4.476;2022-07-29T09:45:06;3.46;;;3.46;;
69837;SDS011;57135;51.992;4.476;2022-07-29T09:50:34;3.95;;;3.95;;
69837;SDS011;57135;51.992;4.476;2022-07-29T09:53:03;3.71;;;3.71;;
69837;SDS011;57135;51.992;4.476;2022-07-29T09:55:28;3.43;;;3.43;;
69837;SDS011;57135;51.992;4.476;2022-07-29T09:57:54;3.57;;;3.57;;
69837;SDS011;57135;51.992;4.476;2022-07-29T10:00:41;3.47;;;3.47;;
69837;SDS011;57135;51.992;4.476;2022-07-29T10:03:07;3.94;;;3.94;;
69837;SDS011;57135;51.992;4.476;2022-07-29T10:05:33;3.92;;;3.92;;
69837;SDS011;57135;51.992;4.476;2022-07-29T10:07:59;3.94;;;3.94;;
69837;SDS011;57135;51.992;4.476;2022-07-29T10:10:26;3.66;;;3.66;;
69837;SDS011;57135;51.992;4.476;2022-07-29T10:13:00;3.62;;;3.62;;
69837;SDS011;57135;51.992;4.476;2022-07-29T10:15:28;3.63;;;3.63;;
69837;SDS011;57135;51.992;4.476;2022-07-29T10:17:57;4.12;;;4.12;;
69837;SDS011;57135;51.992;4.476;2022-07-29T10:20:23;3.78;;;3.78;;
69837;SDS011;57135;51.992;4.476;2022-07-29T10:22:50;4.17;;;4.17;;
69837;SDS011;57135;51.992;4.476;2022-07-29T10:25:17;4.16;;;4.16;;
69837;SDS011;57135;51.992;4.476;2022-07-29T10:27:44;4.06;;;4.06;;
69837;SDS011;57135;51.992;4.476;2022-07-29T10:30:10;3.94;;;3.94;;
69837;SDS011;57135;51.992;4.476;2022-07-29T10:35:08;4.20;;;4.20;;
69837;SDS011;57135;51.992;4.476;2022-07-29T10:43:32;3.81;;;3.81;;
69837;SDS011;57135;51.992;4.476;2022-07-29T10:46:02;3.68;;;3.68;;
69837;SDS011;57135;51.992;4.476;2022-07-29T10:48:28;4.00;;;4.00;;
69837;SDS011;57135;51.992;4.476;2022-07-29T10:51:02;3.88;;;3.88;;
69837;SDS011;57135;51.992;4.476;2022-07-29T10:56:24;3.43;;;3.43;;
69837;SDS011;57135;51.992;4.476;2022-07-29T11:01:44;3.09;;;3.09;;
69837;SDS011;57135;51.992;4.476;2022-07-29T11:07:08;3.33;;;3.33;;
69837;SDS011;57135;51.992;4.476;2022-07-29T11:09:34;2.95;;;2.95;;
69837;SDS011;57135;51.992;4.476;2022-07-29T11:12:00;3.11;;;3.11;;
69837;SDS011;57135;51.992;4.476;2022-07-29T11:17:24;3.04;;;3.04;;
69837;SDS011;57135;51.992;4.476;2022-07-29T11:19:49;2.94;;;2.94;;
69837;SDS011;57135;51.992;4.476;2022-07-29T11:22:34;2.75;;;2.75;;
69837;SDS011;57135;51.992;4.476;2022-07-29T11:25:16;3.28;;;3.28;;
69837;SDS011;57135;51.992;4.476;2022-07-29T11:27:46;2.83;;;2.83;;
69837;SDS011;57135;51.992;4.476;2022-07-29T11:30:11;2.99;;;2.99;;
69837;SDS011;57135;51.992;4.476;2022-07-29T11:32:41;2.72;;;2.72;;
69837;SDS011;57135;51.992;4.476;2022-07-29T11:35:15;2.58;;;2.58;;
69837;SDS011;57135;51.992;4.476;2022-07-29T11:37:43;2.94;;;2.94;;
69837;SDS011;57135;51.992;4.476;2022-07-29T11:40:10;3.13;;;3.13;;
69837;SDS011;57135;51.992;4.476;2022-07-29T11:42:38;3.10;;;3.10;;
69837;SDS011;57135;51.992;4.476;2022-07-29T11:45:12;2.90;;;2.90;;
69837;SDS011;57135;51.992;4.476;2022-07-29T11:47:47;2.52;;;2.52;;
69837;SDS011;57135;51.992;4.476;2022-07-29T11:50:15;2.36;;;2.36;;
69837;SDS011;57135;51.992;4.476;2022-07-29T11:52:46;2.76;;;2.76;;
69837;SDS011;57135;51.992;4.476;2022-07-29T11:55:19;2.60;;;2.60;;
69837;SDS011;57135;51.992;4.476;2022-07-29T12:03:08;2.77;;;2.77;;
69837;SDS011;57135;51.992;4.476;2022-07-29T12:05:37;2.91;;;2.91;;
69837;SDS011;57135;51.992;4.476;2022-07-29T12:10:38;3.47;;;3.47;;
69837;SDS011;57135;51.992;4.476;2022-07-29T12:13:04;3.19;;;3.19;;
69837;SDS011;57135;51.992;4.476;2022-07-29T12:15:30;3.45;;;3.45;;
69837;SDS011;57135;51.992;4.476;2022-07-29T12:17:56;3.50;;;3.50;;
69837;SDS011;57135;51.992;4.476;2022-07-29T12:20:26;3.27;;;3.27;;
69837;SDS011;57135;51.992;4.476;2022-07-29T12:22:53;3.11;;;3.11;;
69837;SDS011;57135;51.992;4.476;2022-07-29T12:25:19;3.74;;;3.74;;
69837;SDS011;57135;51.992;4.476;2022-07-29T12:27:47;3.09;;;3.09;;
69837;SDS011;57135;51.992;4.476;2022-07-29T12:30:22;2.89;;;2.89;;
69837;SDS011;57135;51.992;4.476;2022-07-29T12:32:48;3.70;;;3.70;;
69837;SDS011;57135;51.992;4.476;2022-07-29T12:35:14;3.51;;;3.51;;
69837;SDS011;57135;51.992;4.476;2022-07-29T12:37:42;3.68;;;3.68;;
69837;SDS011;57135;51.992;4.476;2022-07-29T12:40:10;3.41;;;3.41;;
69837;SDS011;57135;51.992;4.476;2022-07-29T12:42:38;3.28;;;3.28;;
69837;SDS011;57135;51.992;4.476;2022-07-29T12:45:04;3.74;;;3.74;;
69837;SDS011;57135;51.992;4.476;2022-07-29T12:47:30;3.11;;;3.11;;
69837;SDS011;57135;51.992;4.476;2022-07-29T12:50:10;3.17;;;3.17;;
69837;SDS011;57135;51.992;4.476;2022-07-29T12:52:39;3.46;;;3.46;;
69837;SDS011;57135;51.992;4.476;2022-07-29T12:55:05;3.36;;;3.36;;
69837;SDS011;57135;51.992;4.476;2022-07-29T12:57:30;2.99;;;2.99;;
69837;SDS011;57135;51.992;4.476;2022-07-29T13:00:07;2.84;;;2.84;;
69837;SDS011;57135;51.992;4.476;2022-07-29T13:02:36;2.91;;;2.91;;
69837;SDS011;57135;51.992;4.476;2022-07-29T13:05:01;3.05;;;3.05;;
69837;SDS011;57135;51.992;4.476;2022-07-29T13:07:30;3.19;;;3.19;;
69837;SDS011;57135;51.992;4.476;2022-07-29T13:15:44;2.83;;;2.83;;
69837;SDS011;57135;51.992;4.476;2022-07-29T13:18:28;2.66;;;2.66;;
69837;SDS011;57135;51.992;4.476;2022-07-29T13:20:56;2.97;;;2.97;;
69837;SDS011;57135;51.992;4.476;2022-07-29T13:23:21;2.98;;;2.98;;
69837;SDS011;57135;51.992;4.476;2022-07-29T13:25:47;2.84;;;2.84;;
69837;SDS011;57135;51.992;4.476;2022-07-29T13:28:12;2.89;;;2.89;;
69837;SDS011;57135;51.992;4.476;2022-07-29T13:30:41;2.72;;;2.72;;
69837;SDS011;57135;51.992;4.476;2022-07-29T13:33:06;2.86;;;2.86;;
69837;SDS011;57135;51.992;4.476;2022-07-29T13:35:32;2.94;;;2.94;;
69837;SDS011;57135;51.992;4.476;2022-07-29T13:37:57;2.87;;;2.87;;
69837;SDS011;57135;51.992;4.476;2022-07-29T13:40:23;2.76;;;2.76;;
69837;SDS011;57135;51.992;4.476;2022-07-29T13:42:48;2.90;;;2.90;;
69837;SDS011;57135;51.992;4.476;2022-07-29T13:45:14;3.04;;;3.04;;
69837;SDS011;57135;51.992;4.476;2022-07-29T13:47:40;2.85;;;2.85;;
69837;SDS011;57135;51.992;4.476;2022-07-29T13:50:06;3.00;;;3.00;;
69837;SDS011;57135;51.992;4.476;2022-07-29T13:52:33;2.85;;;2.85;;
69837;SDS011;57135;51.992;4.476;2022-07-29T13:54:59;2.84;;;2.84;;
69837;SDS011;57135;51.992;4.476;2022-07-29T13:57:24;2.96;;;2.96;;
69837;SDS011;57135;51.992;4.476;2022-07-29T13:59:49;2.83;;;2.83;;
69837;SDS011;57135;51.992;4.476;2022-07-29T14:02:16;3.00;;;3.00;;
69837;SDS011;57135;51.992;4.476;2022-07-29T14:04:43;3.01;;;3.01;;
69837;SDS011;57135;51.992;4.476;2022-07-29T14:07:09;3.45;;;3.45;;
69837;SDS011;57135;51.992;4.476;2022-07-29T14:09:35;3.32;;;3.32;;
69837;SDS011;57135;51.992;4.476;2022-07-29T14:12:03;3.26;;;3.26;;
69837;SDS011;57135;51.992;4.476;2022-07-29T14:14:28;3.14;;;3.14;;
69837;SDS011;57135;51.992;4.476;2022-07-29T14:16:54;3.16;;;3.16;;
69837;SDS011;57135;51.992;4.476;2022-07-29T14:19:20;3.26;;;3.26;;
69837;SDS011;57135;51.992;4.476;2022-07-29T14:21:45;3.16;;;3.16;;
69837;SDS011;57135;51.992;4.476;2022-07-29T14:24:11;2.78;;;2.78;;
69837;SDS011;57135;51.992;4.476;2022-07-29T14:26:36;2.93;;;2.93;;
69837;SDS011;57135;51.992;4.476;2022-07-29T14:29:02;3.48;;;3.48;;
69837;SDS011;57135;51.992;4.476;2022-07-29T14:31:27;3.30;;;3.30;;
69837;SDS011;57135;51.992;4.476;2022-07-29T14:33:53;3.55;;;3.55;;
69837;SDS011;57135;51.992;4.476;2022-07-29T14:36:18;3.51;;;3.51;;
69837;SDS011;57135;51.992;4.476;2022-07-29T14:38:44;3.46;;;3.46;;
69837;SDS011;57135;51.992;4.476;2022-07-29T14:41:09;3.16;;;3.16;;
69837;SDS011;57135;51.992;4.476;2022-07-29T14:43:35;3.20;;;3.20;;
69837;SDS011;57135;51.992;4.476;2022-07-29T14:46:00;3.22;;;3.22;;
69837;SDS011;57135;51.992;4.476;2022-07-29T14:48:26;3.32;;;3.32;;
69837;SDS011;57135;51.992;4.476;2022-07-29T14:50:52;3.15;;;3.15;;
69837;SDS011;57135;51.992;4.476;2022-07-29T14:53:17;3.56;;;3.56;;
69837;SDS011;57135;51.992;4.476;2022-07-29T14:55:43;3.21;;;3.21;;
69837;SDS011;57135;51.992;4.476;2022-07-29T14:58:09;3.06;;;3.06;;
69837;SDS011;57135;51.992;4.476;2022-07-29T15:00:34;2.86;;;2.86;;
69837;SDS011;57135;51.992;4.476;2022-07-29T15:03:01;2.96;;;2.96;;
69837;SDS011;57135;51.992;4.476;2022-07-29T15:05:30;3.06;;;3.06;;
69837;SDS011;57135;51.992;4.476;2022-07-29T15:07:56;2.90;;;2.90;;
69837;SDS011;57135;51.992;4.476;2022-07-29T15:10:22;2.95;;;2.95;;
69837;SDS011;57135;51.992;4.476;2022-07-29T15:12:48;3.15;;;3.15;;
69837;SDS011;57135;51.992;4.476;2022-07-29T15:15:13;3.09;;;3.09;;
69837;SDS011;57135;51.992;4.476;2022-07-29T15:17:39;2.92;;;2.92;;
69837;SDS011;57135;51.992;4.476;2022-07-29T15:20:04;3.08;;;3.08;;
69837;SDS011;57135;51.992;4.476;2022-07-29T15:22:30;2.73;;;2.73;;
69837;SDS011;57135;51.992;4.476;2022-07-29T15:24:56;2.80;;;2.80;;
69837;SDS011;57135;51.992;4.476;2022-07-29T15:27:21;2.96;;;2.96;;
69837;SDS011;57135;51.992;4.476;2022-07-29T15:29:47;2.65;;;2.65;;
69837;SDS011;57135;51.992;4.476;2022-07-29T15:32:12;2.63;;;2.63;;
69837;SDS011;57135;51.992;4.476;2022-07-29T15:34:38;2.79;;;2.79;;
69837;SDS011;57135;51.992;4.476;2022-07-29T15:37:04;2.83;;;2.83;;